If you wish to contribute or participate in the discussions about articles you are invited to join SKYbrary as a registered user

 Actions

Innsbruck Airport

From SKYbrary Wiki

LOWI
Airport
ICAO: LOWI – IATA: INN
Summary
Name Innsbruck Airport
Region Europe
Territory Austria AT.gif
Location Innsbruck, Tyrol
Serving Innsbruck
Elevation 580.949 m <br />1,906 ft580.949 m <br />
Coordinates 47° 15' 36.00" N, 11° 20' 35.99" E
Runways
Designator Length Width Surface ROPS
8/26 2000 m6,561.68 ft <br /> 45 m147.638 ft <br /> ASP yes/yes


METAR
Observation LOWI 240920Z VRB03KT CAVOK 08/01 Q1028 NOSIG
Station Innsbruck-Flughafen
Date/Time 24 October 2021 09:20:00
Wind direction °
Wind speed 03 kts
Lowest cloud amount clouds and visibility OK
Temperature 8°C
Dew point 1°C
Humidity 61%
QNH 1028 hPa
Weather condition n/a

International airport serving the Tyrol.

Climatology

Humid Continental climate (Köppen climate classification Dfb)

Maps

Terrain

Loading map...

Airport Layout

Loading map...


Accidents & Serious Incidents at or in vicinity of LOWI

None on SKYbrary